Terminal Aerodrome Forecast
Issued by NWS

Home | Current Version | Previous Version | Text Only | Print | Product List | Glossary On
Versions: 1 2 3 4 5 6 7 8 9 10 11 12
161
FTUS44 KEPZ 290521
TAFLRU
TAF
KLRU 290521Z 2906/3006 27006KT P6SM FEW170
     FM291800 24015G25KT P6SM SKC
     FM300300 26009KT P6SM SKC=

USA.gov is the U.S. government's official web portal to all federal, state and local government web resources and services.